Time;durP1;ratioP1;P1;durP2;ratioP2;P2;SDS_P1;SDS_P2;PMS_P1;PMS_P2;Temp;Humidity;BMP_temperature;BMP_pressure;BME280_temperature;BME280_humidity;BME280_pressure;Samples;Min_cycle;Max_cycle;Signal;HPM_P1;HPM_P2
2023/06/19 00:00:24;;;;;;;;;4.25;4.00;;;;;22.20;73.17;100710.91;4903688;29;45411;-66
2023/06/19 00:02:50;;;;;;;;;5.00;5.00;;;;;22.17;72.77;100722.00;4902686;29;45440;-67
2023/06/19 00:05:15;;;;;;;;;6.00;6.00;;;;;22.08;72.89;100703.72;4904056;29;45568;-67
2023/06/19 00:07:40;;;;;;;;;6.00;5.00;;;;;22.10;72.56;100699.06;4903088;28;45531;-67
2023/06/19 00:10:06;;;;;;;;;4.50;4.50;;;;;22.00;72.82;100679.91;4905459;28;45579;-66
2023/06/19 00:12:32;;;;;;;;;3.75;3.75;;;;;22.24;72.66;100716.94;4903563;29;45318;-67
2023/06/19 00:14:58;;;;;;;;;5.75;5.75;;;;;22.15;73.07;100707.69;4903519;29;45307;-67
2023/06/19 00:17:26;;;;;;;;;6.00;4.75;;;;;22.06;72.78;100693.97;4903502;29;45333;-67
2023/06/19 00:19:52;;;;;;;;;8.75;7.00;;;;;22.21;73.08;100722.63;4903405;29;45961;-67
2023/06/19 00:22:17;;;;;;;;;5.00;5.00;;;;;22.23;72.81;100734.22;4901419;29;45489;-67
2023/06/19 00:24:43;;;;;;;;;5.00;2.75;;;;;22.12;72.90;100707.06;4903636;29;45448;-67
2023/06/19 00:27:08;;;;;;;;;5.75;5.00;;;;;22.06;72.49;100700.28;4901981;29;45714;-67
2023/06/19 00:29:34;;;;;;;;;6.75;5.75;;;;;22.07;72.97;100710.16;4895575;29;45435;-67
2023/06/19 00:31:59;;;;;;;;;7.50;7.50;;;;;22.23;72.91;100752.41;4897552;29;45403;-67
2023/06/19 00:34:25;;;;;;;;;6.25;6.25;;;;;22.15;72.77;100737.59;4902421;28;45759;-67
2023/06/19 00:36:56;;;;;;;;;5.75;5.50;;;;;22.07;72.50;100739.19;4902937;29;45553;-67
2023/06/19 00:39:22;;;;;;;;;8.25;6.75;;;;;22.12;72.61;100761.41;4903306;29;45370;-67
2023/06/19 00:41:48;;;;;;;;;5.00;5.00;;;;;22.04;72.68;100755.75;4903148;29;45417;-67
2023/06/19 00:44:13;;;;;;;;;6.25;5.00;;;;;22.02;72.70;100759.47;4886314;29;45558;-66
2023/06/19 00:46:41;;;;;;;;;4.50;4.50;;;;;21.96;73.19;100757.22;4903011;28;45408;-67
2023/06/19 00:49:08;;;;;;;;;4.00;4.00;;;;;21.95;73.02;100760.94;4903238;29;46601;-67
2023/06/19 00:51:33;;;;;;;;;8.50;7.25;;;;;21.98;72.85;100776.13;4902800;29;45349;-67
2023/06/19 00:53:59;;;;;;;;;5.00;5.00;;;;;21.91;72.70;100766.75;4903049;29;45317;-66
2023/06/19 00:56:25;;;;;;;;;5.25;5.25;;;;;21.97;72.73;100771.69;4902556;29;45613;-67
2023/06/19 00:58:52;;;;;;;;;5.50;4.50;;;;;22.01;73.04;100784.91;4902892;29;45652;-67
2023/06/19 01:01:20;;;;;;;;;7.25;6.25;;;;;21.87;73.04;100765.25;4902878;29;45587;-66
2023/06/19 01:03:46;;;;;;;;;5.75;5.75;;;;;21.83;72.88;100761.91;4900584;28;46631;-66
2023/06/19 01:06:24;;;;;;;;;5.50;5.50;;;;;21.97;73.30;100797.00;4902765;29;45504;-66
2023/06/19 01:08:55;;;;;;;;;7.75;7.75;;;;;21.91;73.30;100783.06;4901680;28;48588;-67
2023/06/19 01:11:26;;;;;;;;;7.50;7.00;;;;;21.94;73.52;100799.97;4903145;28;45459;-67
2023/06/19 01:13:57;;;;;;;;;6.50;6.25;;;;;21.92;73.42;100791.09;4902909;29;45390;-67
2023/06/19 01:16:24;;;;;;;;;8.25;8.00;;;;;21.78;72.90;100773.13;4901343;29;45337;-67
2023/06/19 01:18:50;;;;;;;;;7.00;6.75;;;;;21.82;73.54;100782.78;4898844;29;47441;-67
2023/06/19 01:21:18;;;;;;;;;7.75;7.25;;;;;21.75;73.84;100769.81;4901298;29;45403;-67
2023/06/19 01:23:44;;;;;;;;;6.25;6.25;;;;;21.82;73.88;100788.22;4902404;29;45364;-67
2023/06/19 01:26:11;;;;;;;;;9.75;8.00;;;;;21.80;73.48;100787.50;4902724;29;45520;-67
2023/06/19 01:28:40;;;;;;;;;6.25;6.25;;;;;21.85;73.73;100803.41;4885059;29;46234;-67
2023/06/19 01:31:12;;;;;;;;;8.25;7.25;;;;;21.79;74.01;100788.47;4890823;29;45281;-67
2023/06/19 01:33:39;;;;;;;;;6.75;6.75;;;;;21.83;73.68;100791.78;4881392;29;45577;-66
2023/06/19 01:36:07;;;;;;;;;7.75;6.75;;;;;21.62;73.18;100754.47;4883268;29;45498;-66
2023/06/19 01:38:34;;;;;;;;;7.00;7.00;;;;;21.79;73.61;100782.19;4883127;29;45489;-67
2023/06/19 01:41:01;;;;;;;;;11.00;9.00;;;;;21.87;73.61;100797.84;4883633;29;45372;-67
2023/06/19 01:43:28;;;;;;;;;8.25;7.50;;;;;21.70;73.28;100775.63;4883684;29;45422;-67
2023/06/19 01:45:53;;;;;;;;;9.25;9.25;;;;;21.78;73.55;100796.72;4866822;29;45363;-67
2023/06/19 01:48:19;;;;;;;;;10.75;8.50;;;;;21.56;73.83;100771.25;4883440;29;46615;-67
2023/06/19 01:50:48;;;;;;;;;11.25;9.75;;;;;21.61;73.49;100784.47;4883383;29;45342;-66
2023/06/19 01:53:14;;;;;;;;;11.75;10.50;;;;;21.58;73.57;100779.28;4883126;29;45342;-67
2023/06/19 01:55:40;;;;;;;;;13.50;12.75;;;;;21.57;73.97;100775.72;4865841;29;45390;-67
2023/06/19 01:58:06;;;;;;;;;8.50;8.00;;;;;21.53;73.98;100778.78;4883180;29;46196;-67
2023/06/19 02:00:35;;;;;;;;;9.50;9.50;;;;;21.67;73.86;100799.41;4881728;29;45443;-67
2023/06/19 02:03:00;;;;;;;;;12.00;11.75;;;;;21.68;73.96;100793.00;4872752;29;45318;-67
2023/06/19 02:05:26;;;;;;;;;13.25;12.50;;;;;21.64;73.96;100784.25;4883173;29;45780;-67
2023/06/19 02:07:51;;;;;;;;;15.25;14.75;;;;;21.53;73.23;100767.91;4881535;29;48257;-67
2023/06/19 02:10:16;;;;;;;;;13.25;12.25;;;;;21.62;73.57;100797.94;4880866;29;45337;-67
2023/06/19 02:12:42;;;;;;;;;16.00;14.75;;;;;21.53;73.64;100781.50;4880567;29;45460;-67
2023/06/19 02:15:08;;;;;;;;;13.25;13.25;;;;;21.65;73.77;100800.44;4880182;29;49671;-67
2023/06/19 02:17:33;;;;;;;;;14.00;13.25;;;;;21.54;73.67;100786.81;4880054;29;45703;-67
2023/06/19 02:19:58;;;;;;;;;12.75;12.50;;;;;21.53;73.38;100781.50;4883016;29;45489;-67
2023/06/19 02:22:24;;;;;;;;;10.25;9.50;;;;;21.50;73.50;100793.47;4879221;29;45480;-67
2023/06/19 02:24:49;;;;;;;;;12.50;12.50;;;;;21.36;73.85;100778.19;4873902;29;45352;-66
2023/06/19 02:27:15;;;;;;;;;13.50;11.50;;;;;21.34;73.19;100779.31;4882736;29;45512;-66
2023/06/19 02:29:41;;;;;;;;;13.00;11.50;;;;;21.39;73.90;100785.25;4874539;29;45388;-66
2023/06/19 02:32:06;;;;;;;;;16.00;14.00;;;;;21.47;73.35;100810.00;4850737;29;45456;-67
2023/06/19 02:34:32;;;;;;;;;16.00;14.25;;;;;21.34;74.03;100785.59;4889795;29;45460;-67
2023/06/19 02:36:58;;;;;;;;;14.00;13.25;;;;;21.49;73.94;100807.19;4889400;29;46313;-66
2023/06/19 02:39:23;;;;;;;;;13.50;11.00;;;;;21.49;73.59;100810.75;4886261;29;45319;-67
2023/06/19 02:41:49;;;;;;;;;11.50;10.00;;;;;21.31;73.65;100783.13;4886094;29;45468;-67
2023/06/19 02:44:14;;;;;;;;;11.75;10.25;;;;;21.43;73.93;100806.63;4884767;29;45470;-67
2023/06/19 02:46:40;;;;;;;;;11.50;9.00;;;;;21.48;73.45;100819.00;4885782;29;46253;-67
2023/06/19 02:49:05;;;;;;;;;13.75;11.00;;;;;21.35;73.57;100808.19;4886193;29;45372;-66
2023/06/19 02:51:31;;;;;;;;;12.25;12.25;;;;;21.24;73.78;100788.16;4885663;29;45318;-67
2023/06/19 02:53:56;;;;;;;;;8.25;7.00;;;;;21.26;74.25;100801.63;4889735;29;45443;-67
2023/06/19 02:56:22;;;;;;;;;12.25;12.00;;;;;21.27;73.68;100796.06;4887751;29;47176;-67
2023/06/19 02:58:47;;;;;;;;;9.25;9.25;;;;;21.26;73.78;100804.34;4868379;29;45612;-66
2023/06/19 03:01:13;;;;;;;;;11.75;10.75;;;;;21.33;73.87;100816.44;4878443;29;45301;-67
2023/06/19 03:03:38;;;;;;;;;10.50;9.00;;;;;21.18;73.81;100782.34;4884904;29;47342;-67
2023/06/19 03:06:08;;;;;;;;;10.00;10.00;;;;;21.33;74.23;100808.28;4885646;29;46129;-67
2023/06/19 03:08:37;;;;;;;;;11.00;10.50;;;;;21.20;74.47;100780.34;4884005;29;45445;-66
2023/06/19 03:11:04;;;;;;;;;12.50;11.25;;;;;21.23;74.08;100788.28;4886470;29;45519;-67
2023/06/19 03:13:53;;;;;;;;;11.50;11.50;;;;;21.32;73.95;100811.13;4885730;29;45405;-67
2023/06/19 03:16:20;;;;;;;;;12.00;9.00;;;;;21.32;74.04;100811.13;4889142;29;45519;-67
2023/06/19 03:18:46;;;;;;;;;11.75;11.00;;;;;21.24;73.87;100792.72;4885287;29;45545;-67
2023/06/19 03:21:12;;;;;;;;;10.50;9.50;;;;;21.15;74.48;100780.72;4892765;29;45393;-67
2023/06/19 03:23:37;;;;;;;;;9.50;9.25;;;;;21.17;73.97;100791.47;4890529;29;45537;-67
2023/06/19 03:26:03;;;;;;;;;14.00;14.00;;;;;21.15;74.10;100788.00;4884064;29;46934;-67
2023/06/19 03:28:29;;;;;;;;;7.75;7.25;;;;;21.13;74.44;100784.53;4885245;29;45414;-67
2023/06/19 03:30:54;;;;;;;;;8.25;8.25;;;;;21.04;74.36;100773.41;4873269;29;45453;-66
2023/06/19 03:33:19;;;;;;;;;9.50;9.50;;;;;21.11;74.47;100787.38;4885368;29;45569;-67
2023/06/19 03:35:45;;;;;;;;;10.00;10.00;;;;;21.08;73.95;100777.63;4884749;29;46406;-67
2023/06/19 03:38:10;;;;;;;;;12.25;10.00;;;;;21.20;74.39;100802.97;4884893;29;45384;-67
2023/06/19 03:40:35;;;;;;;;;6.50;5.25;;;;;21.24;74.64;100809.03;4885369;29;45489;-66
2023/06/19 03:43:01;;;;;;;;;13.50;9.25;;;;;21.07;74.04;100786.72;4884801;29;45382;-67
2023/06/19 03:45:26;;;;;;;;;11.00;9.00;;;;;21.08;74.00;100799.34;4884934;29;45391;-67
2023/06/19 03:47:51;;;;;;;;;11.25;9.00;;;;;21.16;74.57;100811.44;4885091;29;49592;-67
2023/06/19 03:50:17;;;;;;;;;8.50;7.75;;;;;21.13;74.16;100817.09;4868985;29;45356;-66
2023/06/19 03:52:42;;;;;;;;;13.50;13.25;;;;;21.03;74.19;100806.97;4884711;29;45334;-66
2023/06/19 03:55:08;;;;;;;;;12.00;10.00;;;;;21.11;74.89;100814.50;4892300;29;46256;-67
2023/06/19 03:57:33;;;;;;;;;11.25;11.00;;;;;20.98;74.45;100801.03;4885031;29;45306;-67
2023/06/19 03:59:58;;;;;;;;;12.75;12.00;;;;;21.02;74.28;100810.66;4884940;29;45297;-67
2023/06/19 04:02:24;;;;;;;;;10.75;10.00;;;;;20.98;74.63;100813.69;4878921;29;53208;-67
2023/06/19 04:04:49;;;;;;;;;13.00;11.25;;;;;20.84;74.60;100795.75;4883934;29;46560;-67
2023/06/19 04:07:15;;;;;;;;;12.50;12.50;;;;;20.97;74.86;100812.84;4884369;29;46481;-67
2023/06/19 04:09:40;;;;;;;;;11.25;11.25;;;;;20.85;74.74;100798.34;4881928;29;45386;-66
2023/06/19 04:12:06;;;;;;;;;8.50;8.50;;;;;20.96;75.27;100823.81;4876162;29;56407;-67
2023/06/19 04:14:31;;;;;;;;;12.25;11.00;;;;;20.95;75.51;100830.19;4884518;29;45538;-67
2023/06/19 04:16:56;;;;;;;;;12.00;9.50;;;;;20.88;75.53;100821.66;4888174;29;45379;-66
2023/06/19 04:19:22;;;;;;;;;11.75;9.75;;;;;20.76;75.15;100809.00;4884676;29;45368;-67
2023/06/19 04:21:47;;;;;;;;;10.50;9.25;;;;;20.76;75.20;100812.59;4895929;29;45422;-67
2023/06/19 04:24:12;;;;;;;;;10.75;9.25;;;;;20.74;75.61;100814.56;4884551;29;46054;-67
2023/06/19 04:26:38;;;;;;;;;11.00;9.75;;;;;20.86;75.43;100843.47;4884476;29;45403;-67
2023/06/19 04:29:03;;;;;;;;;10.50;9.75;;;;;20.91;75.33;100851.28;4880965;29;45529;-67
2023/06/19 04:31:30;;;;;;;;;12.75;10.25;;;;;20.88;75.61;100846.06;4874342;29;45543;-66
2023/06/19 04:33:56;;;;;;;;;13.75;11.75;;;;;20.82;75.04;100836.56;4884056;29;46032;-67
2023/06/19 04:36:22;;;;;;;;;13.25;10.50;;;;;20.96;75.51;100869.94;4884099;29;45497;-66
2023/06/19 04:38:47;;;;;;;;;12.50;11.00;;;;;20.80;75.31;100832.22;4884259;29;45441;-67
2023/06/19 04:41:13;;;;;;;;;15.75;13.75;;;;;20.89;75.65;100855.97;4884444;29;45591;-66
2023/06/19 04:43:41;;;;;;;;;11.50;9.75;;;;;20.77;75.54;100840.59;4884107;29;45367;-67
2023/06/19 04:46:07;;;;;;;;;13.75;13.00;;;;;20.86;75.91;100857.03;4884313;29;45591;-67
2023/06/19 04:48:32;;;;;;;;;12.00;11.00;;;;;20.74;75.62;100849.81;4884399;29;45452;-66
2023/06/19 04:51:00;;;;;;;;;11.50;11.25;;;;;20.72;75.84;100849.94;4884181;29;45635;-66
2023/06/19 04:53:26;;;;;;;;;13.50;12.25;;;;;20.79;75.97;100863.03;4866528;29;47916;-66
2023/06/19 04:55:54;;;;;;;;;11.75;10.75;;;;;20.71;75.79;100856.34;4874196;29;45572;-67
2023/06/19 04:58:20;;;;;;;;;11.25;11.00;;;;;20.67;76.12;100854.81;4882888;29;45292;-66
2023/06/19 05:00:50;;;;;;;;;15.25;14.75;;;;;20.70;76.33;100867.31;4867043;29;45535;-66
2023/06/19 05:03:16;;;;;;;;;10.75;10.75;;;;;20.64;76.17;100870.47;4883712;29;46472;-67
2023/06/19 05:05:42;;;;;;;;;14.00;12.75;;;;;20.62;76.12;100861.53;4884161;29;45602;-66
2023/06/19 05:08:07;;;;;;;;;10.75;10.75;;;;;20.59;76.22;100849.06;4883592;29;45277;-67
2023/06/19 05:10:32;;;;;;;;;15.00;13.75;;;;;20.75;76.59;100883.22;4885757;29;45273;-67
2023/06/19 05:12:58;;;;;;;;;13.00;13.00;;;;;20.63;76.34;100860.56;4883704;29;46118;-67
2023/06/19 05:15:23;;;;;;;;;12.00;12.00;;;;;20.65;76.48;100861.34;4887718;29;45424;-66
2023/06/19 05:17:48;;;;;;;;;13.25;12.50;;;;;20.61;76.43;100844.38;4883879;29;45387;-66
2023/06/19 05:20:15;;;;;;;;;14.50;10.75;;;;;20.59;76.63;100840.91;4883662;29;45579;-67
2023/06/19 05:22:40;;;;;;;;;14.00;12.75;;;;;20.79;76.81;100863.03;4896367;29;45435;-66
2023/06/19 05:25:06;;;;;;;;;14.25;10.50;;;;;20.70;76.53;100841.03;4881205;29;45511;-67
2023/06/19 05:27:32;;;;;;;;;12.75;12.75;;;;;20.76;76.40;100853.28;4877713;29;45682;-66
2023/06/19 05:29:58;;;;;;;;;14.75;12.50;;;;;20.84;76.10;100861.72;4872859;29;45644;-66
2023/06/19 05:32:23;;;;;;;;;13.25;12.25;;;;;20.70;76.58;100841.03;4881363;29;46158;-66
2023/06/19 05:34:49;;;;;;;;;12.50;12.00;;;;;20.82;76.12;100854.69;4883260;29;45453;-66
2023/06/19 05:37:15;;;;;;;;;13.50;12.25;;;;;20.76;75.86;100842.41;4866147;29;45534;-66
2023/06/19 05:39:41;;;;;;;;;12.25;12.00;;;;;20.85;76.55;100849.91;4883610;29;45452;-66
2023/06/19 05:42:06;;;;;;;;;14.25;13.25;;;;;20.83;76.89;100845.53;4881876;29;45760;-66
2023/06/19 05:44:32;;;;;;;;;16.50;16.00;;;;;20.83;76.57;100843.72;4882886;29;45536;-66
2023/06/19 05:46:57;;;;;;;;;15.00;13.00;;;;;20.80;76.62;100833.09;4866220;29;45538;-66
2023/06/19 05:49:23;;;;;;;;;10.25;9.50;;;;;20.93;76.68;100857.44;4883301;29;51374;-71
2023/06/19 05:52:17;;;;;;;;;13.50;11.75;;;;;20.93;76.25;100838.44;4882907;29;45467;-73
2023/06/19 06:35:31;;;;;;;;;18.75;17.00;;;;;21.25;76.64;100897.59;4939003;28;45548;-74
2023/06/19 06:38:58;;;;;;;;;21.25;19.00;;;;;20.91;76.80;100849.44;4939543;28;45618;-73
2023/06/19 06:41:49;;;;;;;;;20.00;18.00;;;;;21.15;76.99;100886.59;4904336;28;45874;-74
2023/06/19 06:45:11;;;;;;;;;;;;;;;;;;;;;
2023/06/19 06:48:16;;;;;;;;;;;;;;;;;;;;;
2023/06/19 06:51:22;;;;;;;;;;;;;;;;;;;;;
2023/06/19 06:54:00;;;;;;;;;18.00;18.00;;;;;21.35;76.60;100914.06;4940942;28;75356;-74
2023/06/19 06:57:00;;;;;;;;;;;;;;;;;;;;;
2023/06/19 07:00:00;;;;;;;;;21.00;19.00;;;;;21.10;76.42;100872.50;4940916;28;68025;-74
2023/06/19 07:02:32;;;;;;;;;23.25;18.50;;;;;21.08;76.54;100869.91;4922181;28;45461;-74
2023/06/19 07:05:34;;;;;;;;;17.75;17.75;;;;;21.32;76.17;100903.44;4919190;28;46333;-73
2023/06/19 07:08:07;;;;;;;;;17.50;16.50;;;;;21.12;75.92;100866.94;4919766;28;45502;-73
2023/06/19 07:10:40;;;;;;;;;20.25;20.25;;;;;21.03;75.97;100844.94;4923886;28;45327;-74
2023/06/19 07:13:17;;;;;;;;;19.50;19.00;;;;;21.40;76.51;100906.44;4942287;28;45471;-74
2023/06/19 07:15:55;;;;;;;;;17.25;17.25;;;;;21.43;76.39;100906.22;4941566;28;45828;-74
2023/06/19 07:18:30;;;;;;;;;21.25;20.25;;;;;21.24;76.36;100868.75;4940919;28;45673;-74
2023/06/19 07:21:34;;;;;;;;;23.00;20.25;;;;;21.58;75.98;100915.09;4934407;28;45557;-74
2023/06/19 07:24:24;;;;;;;;;;;;;;;;;;;;;
2023/06/19 07:26:50;;;;;;;;;21.75;21.75;;;;;21.33;76.35;100873.47;4936825;28;74377;-74
2023/06/19 07:29:18;;;;;;;;;25.75;23.25;;;;;21.27;75.33;100863.09;4922638;28;45465;-74
2023/06/19 07:31:56;;;;;;;;;23.00;22.75;;;;;21.49;75.30;100888.66;4933657;28;45677;-74
2023/06/19 07:34:21;;;;;;;;;19.00;18.00;;;;;21.52;75.35;100893.81;4939792;28;45474;-74
2023/06/19 07:36:47;;;;;;;;;18.25;18.25;;;;;21.65;75.97;100903.66;4940154;28;45445;-74
2023/06/19 07:39:35;;;;;;;;;18.00;17.25;;;;;21.67;75.15;100900.81;4926195;28;45719;-69
2023/06/19 07:49:02;;;;;;;;;26.75;25.50;;;;;21.75;74.83;100901.09;5899120;23;45786;-85
2023/06/19 07:51:27;;;;;;;;;20.00;20.00;;;;;21.72;75.43;100892.28;4940451;28;45500;-85
2023/06/19 07:53:53;;;;;;;;;22.75;22.50;;;;;21.71;75.01;100891.44;4934788;28;45712;-85
2023/06/19 07:56:18;;;;;;;;;24.50;21.50;;;;;21.80;75.28;100908.88;4926054;28;52141;-85
2023/06/19 07:58:43;;;;;;;;;19.00;19.00;;;;;21.84;74.86;100905.81;4926372;28;45641;-85
2023/06/19 08:01:10;;;;;;;;;21.75;20.75;;;;;21.89;75.25;100907.31;4915061;28;45373;-84
2023/06/19 08:03:35;;;;;;;;;24.25;22.00;;;;;21.87;75.46;100899.28;4918571;28;45827;-84
2023/06/19 08:06:00;;;;;;;;;20.75;19.50;;;;;21.92;75.26;100902.50;4918097;28;45451;-84
2023/06/19 08:08:26;;;;;;;;;19.75;19.75;;;;;22.05;74.86;100918.69;4912723;28;45545;-84
2023/06/19 08:10:51;;;;;;;;;22.50;19.75;;;;;22.14;74.87;100914.41;4898471;28;46634;-85
2023/06/19 08:13:17;;;;;;;;;20.25;19.00;;;;;22.20;74.47;100911.19;4919006;28;45821;-84
2023/06/19 08:15:44;;;;;;;;;20.75;20.00;;;;;22.22;74.66;100895.66;4919593;28;45355;-88
2023/06/19 08:18:09;;;;;;;;;20.75;19.50;;;;;22.32;74.80;100903.94;4902945;28;47949;-85
2023/06/19 08:20:35;;;;;;;;;17.00;17.00;;;;;22.34;72.77;100910.16;4917614;28;52699;-85
2023/06/19 08:23:00;;;;;;;;;20.50;19.00;;;;;22.34;74.07;100908.28;4920584;28;45293;-85
2023/06/19 08:25:25;;;;;;;;;20.50;18.75;;;;;22.43;73.46;100912.13;4920043;28;45753;-85
2023/06/19 08:27:50;;;;;;;;;20.25;19.25;;;;;22.46;73.42;100902.88;4918892;28;45561;-85
2023/06/19 08:30:16;;;;;;;;;21.00;19.00;;;;;22.52;73.20;100908.69;4919088;28;45305;-85
2023/06/19 08:32:44;;;;;;;;;19.50;16.25;;;;;22.56;73.01;100904.72;4909442;28;45592;-80
2023/06/19 08:35:09;;;;;;;;;18.75;17.75;;;;;22.58;72.87;100891.84;4910810;28;45440;-80
2023/06/19 08:37:34;;;;;;;;;20.50;19.50;;;;;22.56;71.72;100882.94;4915713;28;46442;-79
2023/06/19 08:40:00;;;;;;;;;17.25;17.25;;;;;22.62;71.39;100903.38;4913980;28;45490;-79
2023/06/19 08:42:25;;;;;;;;;17.50;15.25;;;;;22.56;72.07;100885.66;4903456;28;45379;-80
2023/06/19 08:44:50;;;;;;;;;16.75;15.75;;;;;22.67;70.89;100902.97;4919770;28;45615;-79
2023/06/19 08:47:16;;;;;;;;;16.00;15.25;;;;;22.73;71.38;100916.09;4921439;28;45477;-77
2023/06/19 08:49:42;;;;;;;;;16.50;16.50;;;;;22.78;71.51;100908.41;4917041;28;45517;-79
2023/06/19 08:52:07;;;;;;;;;14.75;14.75;;;;;22.83;70.93;100899.88;4899126;28;45335;-79
2023/06/19 08:54:33;;;;;;;;;16.00;16.00;;;;;22.85;70.98;100904.19;4914259;28;45478;-78
2023/06/19 08:57:02;;;;;;;;;17.00;15.75;;;;;22.93;70.76;100909.03;4919514;28;57175;-79
2023/06/19 08:59:31;;;;;;;;;16.00;15.50;;;;;22.97;70.95;100906.91;4897551;28;45719;-78
2023/06/19 09:01:57;;;;;;;;;13.75;12.75;;;;;22.97;71.02;100901.47;4918722;28;45763;-77
2023/06/19 09:04:27;;;;;;;;;14.25;14.25;;;;;23.03;70.18;100899.09;4915997;28;45434;-84
2023/06/19 09:07:00;;;;;;;;;16.25;16.25;;;;;23.03;70.26;100893.66;4917923;28;45950;-80
2023/06/19 09:09:26;;;;;;;;;16.25;16.25;;;;;23.00;70.16;100877.59;4915535;28;45615;-80
2023/06/19 09:11:59;;;;;;;;;13.25;13.25;;;;;23.10;70.12;100885.88;4918136;28;45536;-80
2023/06/19 09:14:45;;;;;;;;;14.00;13.75;;;;;23.12;70.55;100882.06;4898785;28;45362;-79
2023/06/19 09:17:13;;;;;;;;;17.50;14.75;;;;;23.10;70.72;100884.06;4914793;28;46148;-79
2023/06/19 09:19:46;;;;;;;;;15.00;12.00;;;;;23.12;70.20;100879.34;4899348;28;46593;-79
2023/06/19 09:22:12;;;;;;;;;16.75;16.75;;;;;23.19;70.23;100884.25;4910826;28;45324;-79
2023/06/19 09:24:39;;;;;;;;;13.25;11.00;;;;;23.25;69.77;100886.47;4916872;28;53741;-79
2023/06/19 09:27:18;;;;;;;;;12.00;11.25;;;;;23.26;68.08;100878.16;4916815;28;49278;-80
2023/06/19 09:29:49;;;;;;;;;13.25;12.25;;;;;23.26;68.25;100871.88;4915856;28;45351;-80
2023/06/19 09:32:15;;;;;;;;;13.25;11.75;;;;;23.36;68.18;100882.88;4897487;28;45486;-80
2023/06/19 09:34:41;;;;;;;;;10.00;10.00;;;;;23.39;67.97;100878.00;4918046;28;45634;-79
2023/06/19 09:37:08;;;;;;;;;10.50;9.50;;;;;23.33;68.14;100866.78;4915430;28;45454;-80
2023/06/19 09:39:38;;;;;;;;;10.00;10.00;;;;;23.33;68.05;100864.03;4917290;28;45551;-80
2023/06/19 09:42:06;;;;;;;;;11.00;8.00;;;;;23.42;67.79;100875.03;4915021;28;45675;-80
2023/06/19 09:44:42;;;;;;;;;9.00;9.00;;;;;23.33;68.14;100840.38;4914578;28;46347;-81
2023/06/19 09:47:18;;;;;;;;;11.75;10.50;;;;;23.44;68.04;100856.69;4913798;28;45565;-82
2023/06/19 09:49:48;;;;;;;;;8.25;8.25;;;;;23.51;67.01;100858.91;4916342;28;46332;-84
2023/06/19 09:52:14;;;;;;;;;11.25;10.00;;;;;23.60;66.66;100866.28;4918609;28;45319;-79
2023/06/19 09:54:41;;;;;;;;;12.25;12.25;;;;;23.58;66.62;100852.78;4914129;28;45468;-79
2023/06/19 09:57:07;;;;;;;;;12.25;11.00;;;;;23.66;66.18;100854.88;4894086;29;47339;-80
2023/06/19 09:59:34;;;;;;;;;8.50;8.50;;;;;23.73;66.64;100858.78;4907806;28;46180;-80
2023/06/19 10:02:00;;;;;;;;;10.50;10.00;;;;;23.73;67.28;100849.75;4919628;28;45379;-80
2023/06/19 10:04:25;;;;;;;;;12.25;10.00;;;;;23.83;65.35;100857.00;4927546;28;45394;-79
2023/06/19 10:06:51;;;;;;;;;11.00;9.25;;;;;23.82;65.49;100849.84;4898997;28;47140;-81
2023/06/19 10:09:19;;;;;;;;;10.25;9.50;;;;;23.88;65.64;100859.34;4911481;28;45354;-80
2023/06/19 10:11:50;;;;;;;;;11.00;10.75;;;;;23.95;65.91;100852.34;4918819;28;45460;-85
2023/06/19 10:14:18;;;;;;;;;11.25;11.25;;;;;24.02;65.56;100856.28;4902540;28;45561;-83
2023/06/19 10:16:43;;;;;;;;;9.75;9.00;;;;;24.09;64.68;100853.88;4919245;28;45987;-83
2023/06/19 10:19:14;;;;;;;;;14.25;11.50;;;;;24.08;64.71;100846.69;4917295;28;45449;-84
2023/06/19 10:21:51;;;;;;;;;7.50;7.50;;;;;24.19;64.24;100854.81;4902386;28;45495;-83
2023/06/19 10:24:19;;;;;;;;;10.00;10.00;;;;;24.25;65.04;100849.81;4917215;28;45219;-84
2023/06/19 10:26:56;;;;;;;;;8.75;8.75;;;;;24.29;64.26;100845.78;4918969;28;45853;-83
2023/06/19 10:29:21;;;;;;;;;7.25;7.00;;;;;24.27;63.26;100834.16;4923932;28;45382;-84
2023/06/19 10:31:47;;;;;;;;;8.00;8.00;;;;;24.31;62.86;100833.75;4917270;28;45553;-83
2023/06/19 10:34:12;;;;;;;;;4.25;3.00;;;;;24.41;62.65;100834.66;4915688;28;45566;-81
2023/06/19 10:36:37;;;;;;;;;12.25;11.75;;;;;24.39;62.21;100828.47;4918380;28;45358;-82
2023/06/19 10:39:04;;;;;;;;;10.00;10.00;;;;;24.41;62.80;100831.06;4918826;28;45267;-82
2023/06/19 10:41:31;;;;;;;;;9.75;9.50;;;;;24.48;63.16;100842.31;4918094;28;45498;-81
2023/06/19 10:44:02;;;;;;;;;7.50;7.50;;;;;24.51;62.48;100837.44;4918717;28;45403;-82
2023/06/19 10:46:33;;;;;;;;;9.25;9.25;;;;;24.49;63.14;100833.09;4917554;28;45622;-82
2023/06/19 10:49:04;;;;;;;;;9.50;8.25;;;;;24.57;62.66;100831.47;4902554;28;46051;-82
2023/06/19 10:51:30;;;;;;;;;10.25;10.25;;;;;24.62;62.10;100824.72;4919925;28;45359;-82
2023/06/19 10:53:56;;;;;;;;;9.75;9.75;;;;;24.63;62.59;100827.31;4919196;28;45395;-82
2023/06/19 10:56:23;;;;;;;;;8.75;8.00;;;;;24.65;61.60;100830.75;4917505;28;45616;-82
2023/06/19 10:58:48;;;;;;;;;10.50;10.50;;;;;24.64;61.89;100817.25;4922829;28;45539;-82
2023/06/19 11:01:14;;;;;;;;;10.25;10.25;;;;;24.70;61.65;100827.59;4921249;28;45380;-82
2023/06/19 11:03:39;;;;;;;;;11.50;11.50;;;;;24.66;61.98;100816.13;4900221;28;45472;-83
2023/06/19 11:06:05;;;;;;;;;8.00;8.00;;;;;24.78;60.94;100828.63;4921061;28;45691;-83
2023/06/19 11:08:30;;;;;;;;;11.75;7.75;;;;;24.75;60.68;100811.66;4916942;28;45347;-84
2023/06/19 11:10:56;;;;;;;;;9.00;9.00;;;;;24.76;60.85;100807.94;4902534;28;45422;-82
2023/06/19 11:13:21;;;;;;;;;9.25;8.25;;;;;24.88;59.93;100816.88;4921032;28;45684;-82
2023/06/19 11:15:50;;;;;;;;;8.00;8.00;;;;;24.84;59.71;100805.38;4921083;28;46335;-82
2023/06/19 11:18:17;;;;;;;;;9.50;8.00;;;;;24.82;60.14;100792.88;4917676;28;45749;-82
2023/06/19 11:20:51;;;;;;;;;9.25;9.25;;;;;24.95;59.68;100818.03;4921880;28;45448;-82
2023/06/19 11:23:17;;;;;;;;;13.50;11.00;;;;;24.93;59.42;100817.31;4903362;28;45756;-81
2023/06/19 11:25:43;;;;;;;;;9.25;9.25;;;;;24.89;58.56;100808.56;4900836;28;47534;-83
2023/06/19 11:28:17;;;;;;;;;11.50;9.50;;;;;24.96;59.11;100819.78;4916643;28;45724;-83
2023/06/19 11:30:43;;;;;;;;;6.25;6.25;;;;;24.95;59.59;100809.84;4902932;28;45628;-83
2023/06/19 11:33:24;;;;;;;;;9.00;9.00;;;;;25.06;59.64;100819.75;4918512;28;45441;-81
2023/06/19 11:35:51;;;;;;;;;10.75;10.75;;;;;25.09;59.37;100820.38;4915686;28;45986;-82
2023/06/19 11:38:21;;;;;;;;;11.00;9.50;;;;;25.08;59.19;100798.66;4905019;28;45426;-83
2023/06/19 11:40:49;;;;;;;;;10.00;10.00;;;;;25.06;59.37;100793.34;4918786;28;45320;-82
2023/06/19 11:43:25;;;;;;;;;12.75;10.00;;;;;25.19;59.49;100806.69;4918616;28;45417;-81
2023/06/19 11:45:52;;;;;;;;;12.75;12.75;;;;;25.18;58.11;100804.97;4910423;28;45574;-81
2023/06/19 11:48:27;;;;;;;;;6.75;6.50;;;;;25.17;59.11;100805.97;4896933;28;46180;-81
2023/06/19 11:50:53;;;;;;;;;7.00;7.00;;;;;25.12;59.01;100792.75;4914475;28;45455;-82
2023/06/19 11:53:22;;;;;;;;;9.00;8.50;;;;;25.20;59.72;100794.75;4919386;28;45376;-81
2023/06/19 11:55:48;;;;;;;;;9.00;9.00;;;;;25.24;58.51;100800.81;4921090;28;46439;-81
2023/06/19 11:58:15;;;;;;;;;10.25;10.25;;;;;25.26;59.37;100805.16;4903499;28;45242;-81
2023/06/19 12:00:41;;;;;;;;;9.00;9.00;;;;;25.22;58.82;100792.75;4917499;28;45298;-81
2023/06/19 12:03:06;;;;;;;;;9.25;8.75;;;;;25.22;58.86;100786.44;4904940;28;45877;-81
2023/06/19 12:05:32;;;;;;;;;8.50;7.50;;;;;25.27;58.82;100787.75;4916501;28;51682;-81
2023/06/19 12:07:57;;;;;;;;;9.25;9.25;;;;;25.20;58.20;100770.19;4917762;28;50029;-81
2023/06/19 12:10:23;;;;;;;;;9.25;8.00;;;;;25.31;58.75;100791.06;4912347;28;45470;-81
2023/06/19 12:12:48;;;;;;;;;8.75;8.75;;;;;25.33;58.71;100792.63;4916623;28;45479;-81
2023/06/19 12:15:14;;;;;;;;;10.75;10.00;;;;;25.30;58.53;100776.53;4917631;28;45493;-81